FWI20N LFPO-TNCM
Flight info
| Callsign | FWI20N |
|---|---|
| Flight time | N/A |
| Altitude | 38000 |
| Route | LGL UN491 OTOFE DCT ALUTA DCT TAKAS/M085F380 DCT TAMEL DCT 4730N02000W 45N030W 40N040W/M085F400 35N046W 30N052W 25N057W DCT RKDIA M576 PJM |
| Aircraft | A359/H-SDE2E3GHIJ3J4J5LM1ORWXY/LB1D1 |
Departure
| Time | 2026-05-06 10:49 |
|---|---|
| Airport | Paris-Orly Airport (LFPO) |
Arrival
| Time | N/A |
|---|---|
| Airport | Princess Juliana International Airport (TNCM) |
| Time | Latitude | Longitude | Altitude | Speed | Heading |
|---|---|---|---|---|---|
| 2026-05-06 10:22 | 48.72563 | 2.37316 | 300 ft | 0 kts | 204° |
| 2026-05-06 10:27 | 48.72564 | 2.37316 | 300 ft | 0 kts | 204° |
| 2026-05-06 10:39 | 48.72565 | 2.37317 | 300 ft | 1 kts | 204° |
| 2026-05-06 10:40 | 48.72579 | 2.37327 | 304 ft | 3 kts | 204° |
| 2026-05-06 10:40 | 48.72598 | 2.37339 | 303 ft | 3 kts | 206° |
| 2026-05-06 10:40 | 48.72615 | 2.37352 | 302 ft | 3 kts | 215° |
| 2026-05-06 10:40 | 48.72629 | 2.37369 | 303 ft | 3 kts | 236° |
| 2026-05-06 10:41 | 48.72637 | 2.37392 | 301 ft | 3 kts | 254° |
| 2026-05-06 10:41 | 48.72642 | 2.37421 | 301 ft | 3 kts | 254° |
| 2026-05-06 10:41 | 48.72645 | 2.37436 | 302 ft | 0 kts | 255° |
| 2026-05-06 10:43 | 48.72639 | 2.37406 | 301 ft | 11 kts | 254° |
| 2026-05-06 10:44 | 48.72585 | 2.37108 | 304 ft | 16 kts | 254° |
| 2026-05-06 10:44 | 48.72554 | 2.36940 | 303 ft | 18 kts | 254° |
| 2026-05-06 10:44 | 48.72519 | 2.36751 | 301 ft | 19 kts | 254° |
| 2026-05-06 10:44 | 48.72482 | 2.36555 | 302 ft | 20 kts | 254° |
| 2026-05-06 10:45 | 48.72446 | 2.36356 | 300 ft | 20 kts | 255° |
| 2026-05-06 10:45 | 48.72405 | 2.36136 | 301 ft | 22 kts | 254° |
| 2026-05-06 10:45 | 48.72367 | 2.35927 | 302 ft | 21 kts | 254° |
| 2026-05-06 10:45 | 48.72330 | 2.35728 | 302 ft | 12 kts | 254° |
| 2026-05-06 10:46 | 48.72294 | 2.35624 | 303 ft | 14 kts | 221° |
| 2026-05-06 10:46 | 48.72203 | 2.35604 | 301 ft | 14 kts | 167° |
| 2026-05-06 10:46 | 48.72105 | 2.35655 | 303 ft | 15 kts | 156° |
| 2026-05-06 10:46 | 48.72024 | 2.35766 | 303 ft | 17 kts | 122° |
| 2026-05-06 10:47 | 48.71966 | 2.35891 | 303 ft | 11 kts | 126° |
| 2026-05-06 10:47 | 48.71967 | 2.35991 | 301 ft | 3 kts | 72° |
| 2026-05-06 10:47 | 48.71967 | 2.35992 | 301 ft | 0 kts | 72° |
| 2026-05-06 10:48 | 48.71968 | 2.35993 | 301 ft | 3 kts | 72° |
| 2026-05-06 10:48 | 48.72031 | 2.36340 | 303 ft | 69 kts | 74° |
| 2026-05-06 10:48 | 48.72219 | 2.37354 | 300 ft | 130 kts | 74° |
| 2026-05-06 10:48 | 48.72504 | 2.38919 | 402 ft | 169 kts | 70° |
| 2026-05-06 10:49 | 48.72816 | 2.40578 | 1188 ft | 163 kts | 70° |
| 2026-05-06 10:49 | 48.73153 | 2.42251 | 1817 ft | 174 kts | 70° |
| 2026-05-06 10:49 | 48.73536 | 2.44111 | 2097 ft | 195 kts | 71° |
| 2026-05-06 10:49 | 48.73929 | 2.46176 | 2318 ft | 219 kts | 74° |
| 2026-05-06 10:50 | 48.74127 | 2.48581 | 2713 ft | 238 kts | 85° |
| 2026-05-06 10:50 | 48.74201 | 2.51129 | 3335 ft | 245 kts | 85° |
| 2026-05-06 10:50 | 48.74278 | 2.53725 | 4007 ft | 248 kts | 86° |
| 2026-05-06 10:50 | 48.74211 | 2.56371 | 4625 ft | 256 kts | 99° |
| 2026-05-06 10:51 | 48.73463 | 2.58829 | 5314 ft | 262 kts | 127° |
| 2026-05-06 10:51 | 48.71995 | 2.60489 | 6056 ft | 270 kts | 156° |
| 2026-05-06 10:51 | 48.70127 | 2.60865 | 6770 ft | 277 kts | 186° |
| 2026-05-06 10:51 | 48.68331 | 2.59768 | 7463 ft | 285 kts | 217° |
| 2026-05-06 10:52 | 48.67130 | 2.57398 | 8167 ft | 289 kts | 249° |
| 2026-05-06 10:52 | 48.66783 | 2.54450 | 8907 ft | 291 kts | 268° |
| 2026-05-06 10:52 | 48.66732 | 2.51367 | 9650 ft | 295 kts | 270° |
| 2026-05-06 10:52 | 48.66690 | 2.48248 | 10257 ft | 303 kts | 269° |
| 2026-05-06 10:53 | 48.66629 | 2.44980 | 10571 ft | 320 kts | 269° |
| 2026-05-06 10:53 | 48.66527 | 2.41516 | 10863 ft | 338 kts | 265° |
| 2026-05-06 10:53 | 48.65954 | 2.37981 | 11194 ft | 353 kts | 249° |
| 2026-05-06 10:53 | 48.65012 | 2.34468 | 11540 ft | 368 kts | 246° |
| 2026-05-06 10:54 | 48.64006 | 2.30857 | 12088 ft | 375 kts | 247° |
| 2026-05-06 10:54 | 48.63171 | 2.27090 | 12717 ft | 381 kts | 258° |
| 2026-05-06 10:54 | 48.63015 | 2.23076 | 13352 ft | 385 kts | 275° |
| 2026-05-06 10:54 | 48.63372 | 2.19047 | 13976 ft | 389 kts | 279° |
| 2026-05-06 10:55 | 48.63808 | 2.14975 | 14560 ft | 393 kts | 279° |
| 2026-05-06 10:55 | 48.64236 | 2.10928 | 15152 ft | 396 kts | 279° |
| 2026-05-06 10:55 | 48.64663 | 2.06792 | 15753 ft | 400 kts | 278° |
| 2026-05-06 10:55 | 48.65089 | 2.02610 | 16321 ft | 403 kts | 278° |
| 2026-05-06 10:56 | 48.65512 | 1.98416 | 16901 ft | 406 kts | 278° |
| 2026-05-06 10:56 | 48.65937 | 1.94170 | 17478 ft | 409 kts | 278° |
| 2026-05-06 10:56 | 48.66362 | 1.89897 | 18069 ft | 412 kts | 277° |
| 2026-05-06 10:56 | 48.66787 | 1.85604 | 18616 ft | 414 kts | 277° |
| 2026-05-06 10:57 | 48.67213 | 1.81275 | 19128 ft | 418 kts | 277° |
| 2026-05-06 10:57 | 48.67642 | 1.76912 | 19652 ft | 421 kts | 277° |
| 2026-05-06 10:57 | 48.68071 | 1.72519 | 20202 ft | 424 kts | 277° |
| 2026-05-06 10:57 | 48.68504 | 1.68066 | 20739 ft | 427 kts | 277° |
| 2026-05-06 10:58 | 48.68936 | 1.63601 | 21274 ft | 430 kts | 277° |
| 2026-05-06 10:58 | 48.69364 | 1.59164 | 21798 ft | 433 kts | 277° |
| 2026-05-06 10:58 | 48.69798 | 1.54644 | 22341 ft | 436 kts | 277° |
| 2026-05-06 10:58 | 48.70233 | 1.50094 | 22862 ft | 439 kts | 277° |
| 2026-05-06 10:59 | 48.70670 | 1.45496 | 23410 ft | 442 kts | 277° |
| 2026-05-06 10:59 | 48.71109 | 1.40872 | 23884 ft | 445 kts | 277° |
| 2026-05-06 10:59 | 48.71549 | 1.36206 | 24304 ft | 449 kts | 277° |
| 2026-05-06 10:59 | 48.71990 | 1.31507 | 24722 ft | 452 kts | 277° |
| 2026-05-06 11:00 | 48.72433 | 1.26768 | 25162 ft | 455 kts | 277° |
| 2026-05-06 11:00 | 48.72877 | 1.21997 | 25570 ft | 459 kts | 277° |
| 2026-05-06 11:00 | 48.73318 | 1.17239 | 25963 ft | 462 kts | 277° |
| 2026-05-06 11:00 | 48.73764 | 1.12400 | 26353 ft | 466 kts | 276° |
| 2026-05-06 11:01 | 48.74212 | 1.07515 | 26752 ft | 469 kts | 276° |
| 2026-05-06 11:01 | 48.74661 | 1.02595 | 27145 ft | 473 kts | 276° |
| 2026-05-06 11:01 | 48.75110 | 0.97645 | 27516 ft | 476 kts | 276° |
| 2026-05-06 11:01 | 48.75561 | 0.92649 | 27899 ft | 480 kts | 276° |
| 2026-05-06 11:02 | 48.76013 | 0.87635 | 28299 ft | 482 kts | 276° |
| 2026-05-06 11:02 | 48.76468 | 0.82562 | 28683 ft | 485 kts | 276° |
| 2026-05-06 11:02 | 48.76920 | 0.77479 | 29075 ft | 488 kts | 276° |
| 2026-05-06 11:02 | 48.77374 | 0.72360 | 29456 ft | 491 kts | 276° |
| 2026-05-06 11:03 | 48.77827 | 0.67220 | 29810 ft | 494 kts | 276° |
| 2026-05-06 11:03 | 48.78275 | 0.62119 | 30130 ft | 496 kts | 275° |
| 2026-05-06 11:03 | 48.78731 | 0.56890 | 30456 ft | 498 kts | 275° |
| 2026-05-06 11:03 | 48.79184 | 0.51670 | 30787 ft | 499 kts | 275° |
| 2026-05-06 11:04 | 48.79589 | 0.46432 | 31102 ft | 500 kts | 274° |
| 2026-05-06 11:04 | 48.79923 | 0.41173 | 31395 ft | 501 kts | 272° |
| 2026-05-06 11:04 | 48.80223 | 0.35977 | 31767 ft | 500 kts | 272° |
| 2026-05-06 11:04 | 48.80522 | 0.30726 | 32225 ft | 497 kts | 272° |
| 2026-05-06 11:05 | 48.80824 | 0.25491 | 32650 ft | 496 kts | 272° |
| 2026-05-06 11:05 | 48.81130 | 0.20301 | 33050 ft | 494 kts | 272° |
| 2026-05-06 11:05 | 48.81441 | 0.15110 | 33443 ft | 493 kts | 272° |
| 2026-05-06 11:05 | 48.81753 | 0.09946 | 33832 ft | 491 kts | 272° |
| 2026-05-06 11:06 | 48.82063 | 0.04791 | 34148 ft | 489 kts | 272° |
| 2026-05-06 11:06 | 48.82372 | -0.00352 | 34439 ft | 488 kts | 272° |
| 2026-05-06 11:06 | 48.82677 | -0.05478 | 34696 ft | 488 kts | 272° |
| 2026-05-06 11:06 | 48.82980 | -0.10621 | 34927 ft | 488 kts | 272° |
| 2026-05-06 11:07 | 48.83280 | -0.15759 | 35152 ft | 488 kts | 272° |
| 2026-05-06 11:07 | 48.83574 | -0.20831 | 35386 ft | 488 kts | 272° |
| 2026-05-06 11:07 | 48.83870 | -0.25974 | 35618 ft | 488 kts | 272° |
| 2026-05-06 11:07 | 48.84162 | -0.31101 | 35845 ft | 487 kts | 272° |
| 2026-05-06 11:08 | 48.84347 | -0.34499 | 35981 ft | 487 kts | 272° |
| 2026-05-06 11:08 | 48.84619 | -0.39645 | 36191 ft | 487 kts | 272° |
| 2026-05-06 11:08 | 48.84972 | -0.46446 | 36453 ft | 487 kts | 272° |
| 2026-05-06 11:08 | 48.85237 | -0.51567 | 36661 ft | 487 kts | 272° |
| 2026-05-06 11:09 | 48.85415 | -0.55032 | 36848 ft | 487 kts | 272° |
| 2026-05-06 11:09 | 48.85675 | -0.60107 | 37083 ft | 487 kts | 272° |
| 2026-05-06 11:09 | 48.85938 | -0.65252 | 37296 ft | 486 kts | 272° |
| 2026-05-06 11:09 | 48.86198 | -0.70381 | 37476 ft | 486 kts | 272° |
| 2026-05-06 11:10 | 48.86458 | -0.75503 | 37664 ft | 486 kts | 272° |
| 2026-05-06 11:10 | 48.86714 | -0.80621 | 37834 ft | 486 kts | 272° |
| 2026-05-06 11:10 | 48.86969 | -0.85748 | 37959 ft | 487 kts | 272° |
| 2026-05-06 11:11 | 48.87472 | -0.96041 | 37952 ft | 492 kts | 272° |
| 2026-05-06 11:11 | 48.87969 | -1.06377 | 37968 ft | 492 kts | 272° |
| 2026-05-06 11:12 | 48.88457 | -1.16739 | 37968 ft | 492 kts | 272° |
| 2026-05-06 11:12 | 48.88935 | -1.27135 | 37978 ft | 492 kts | 272° |
| 2026-05-06 11:13 | 48.89402 | -1.37455 | 37972 ft | 492 kts | 272° |
| 2026-05-06 11:13 | 48.89860 | -1.47835 | 37970 ft | 492 kts | 272° |
| 2026-05-06 11:14 | 48.90316 | -1.58223 | 37972 ft | 491 kts | 272° |
| 2026-05-06 11:14 | 48.90761 | -1.68604 | 37973 ft | 491 kts | 272° |
| 2026-05-06 11:15 | 48.91197 | -1.78979 | 37974 ft | 491 kts | 272° |
| 2026-05-06 11:15 | 48.91620 | -1.89274 | 37975 ft | 492 kts | 272° |
| 2026-05-06 11:16 | 48.92036 | -1.99680 | 37976 ft | 491 kts | 272° |
| 2026-05-06 11:16 | 48.92442 | -2.10066 | 37985 ft | 491 kts | 272° |
| 2026-05-06 11:17 | 48.92838 | -2.20384 | 37981 ft | 491 kts | 272° |
| 2026-05-06 11:17 | 48.93226 | -2.30745 | 37985 ft | 490 kts | 272° |
| 2026-05-06 11:18 | 48.93607 | -2.41125 | 37978 ft | 490 kts | 272° |
| 2026-05-06 11:18 | 48.93977 | -2.51425 | 37983 ft | 490 kts | 272° |
| 2026-05-06 11:19 | 48.94336 | -2.61788 | 37979 ft | 489 kts | 272° |
| 2026-05-06 11:19 | 48.94677 | -2.72141 | 37980 ft | 489 kts | 272° |
| 2026-05-06 11:20 | 48.95008 | -2.82427 | 37982 ft | 489 kts | 272° |
| 2026-05-06 11:20 | 48.95334 | -2.92767 | 37984 ft | 489 kts | 272° |
| 2026-05-06 11:21 | 48.95652 | -3.03119 | 37984 ft | 488 kts | 272° |
| 2026-05-06 11:21 | 48.95958 | -3.13375 | 37987 ft | 488 kts | 272° |
| 2026-05-06 11:22 | 48.96256 | -3.23711 | 37991 ft | 488 kts | 272° |
| 2026-05-06 11:22 | 48.96546 | -3.34047 | 37994 ft | 488 kts | 272° |
| 2026-05-06 11:23 | 48.96826 | -3.44370 | 37989 ft | 488 kts | 272° |
| 2026-05-06 11:23 | 48.97095 | -3.54659 | 37993 ft | 488 kts | 272° |
| 2026-05-06 11:24 | 48.97357 | -3.64996 | 37990 ft | 488 kts | 272° |
| 2026-05-06 11:24 | 48.97609 | -3.75325 | 37993 ft | 488 kts | 272° |
| 2026-05-06 11:25 | 48.97851 | -3.85597 | 37991 ft | 488 kts | 272° |
| 2026-05-06 11:25 | 48.98085 | -3.95950 | 37990 ft | 488 kts | 272° |
| 2026-05-06 11:26 | 48.98309 | -4.06228 | 37995 ft | 488 kts | 272° |
| 2026-05-06 11:26 | 48.98524 | -4.16558 | 37997 ft | 488 kts | 272° |
| 2026-05-06 11:27 | 48.98729 | -4.26834 | 37984 ft | 487 kts | 272° |
| 2026-05-06 11:27 | 48.98926 | -4.37155 | 38004 ft | 487 kts | 271° |
| 2026-05-06 11:28 | 48.99114 | -4.47459 | 37998 ft | 482 kts | 271° |
| 2026-05-06 11:28 | 48.99289 | -4.57617 | 38001 ft | 479 kts | 271° |
| 2026-05-06 11:29 | 48.99455 | -4.67761 | 38003 ft | 478 kts | 271° |
| 2026-05-06 11:29 | 48.99612 | -4.77833 | 38003 ft | 479 kts | 271° |
| 2026-05-06 11:30 | 48.99761 | -4.87969 | 38007 ft | 478 kts | 271° |
| 2026-05-06 11:30 | 48.99901 | -4.98127 | 38006 ft | 478 kts | 271° |
| 2026-05-06 11:31 | 49.00031 | -5.08260 | 38008 ft | 478 kts | 271° |
| 2026-05-06 11:31 | 49.00153 | -5.18326 | 38011 ft | 478 kts | 271° |
| 2026-05-06 11:32 | 49.00266 | -5.28448 | 38013 ft | 477 kts | 271° |
| 2026-05-06 11:32 | 49.00370 | -5.38571 | 38012 ft | 477 kts | 271° |
| 2026-05-06 11:33 | 49.00464 | -5.48599 | 38018 ft | 476 kts | 271° |
| 2026-05-06 11:33 | 49.00551 | -5.58695 | 38018 ft | 476 kts | 271° |
| 2026-05-06 11:34 | 49.00628 | -5.68801 | 38016 ft | 476 kts | 271° |
| 2026-05-06 11:34 | 49.00697 | -5.78892 | 38018 ft | 476 kts | 270° |
| 2026-05-06 11:35 | 49.00757 | -5.88995 | 38025 ft | 476 kts | 270° |
| 2026-05-06 11:35 | 49.00808 | -5.99024 | 38022 ft | 476 kts | 270° |
| 2026-05-06 11:36 | 49.00850 | -6.09142 | 38031 ft | 477 kts | 270° |
| 2026-05-06 11:36 | 49.00884 | -6.19245 | 38030 ft | 477 kts | 270° |
| 2026-05-06 11:37 | 49.00909 | -6.29373 | 38032 ft | 477 kts | 270° |
| 2026-05-06 11:37 | 49.00925 | -6.39420 | 38031 ft | 477 kts | 270° |
| 2026-05-06 11:38 | 49.00932 | -6.49524 | 38033 ft | 478 kts | 270° |
| 2026-05-06 11:38 | 49.00930 | -6.59654 | 38034 ft | 478 kts | 270° |
| 2026-05-06 11:39 | 49.00920 | -6.69784 | 38037 ft | 478 kts | 270° |
| 2026-05-06 11:39 | 49.00900 | -6.79918 | 38041 ft | 478 kts | 270° |
| 2026-05-06 11:40 | 49.00872 | -6.90067 | 38041 ft | 478 kts | 270° |
| 2026-05-06 11:40 | 49.00835 | -7.00151 | 38042 ft | 478 kts | 270° |
| 2026-05-06 11:41 | 49.00789 | -7.10299 | 38040 ft | 478 kts | 269° |
| 2026-05-06 11:41 | 49.00734 | -7.20448 | 38042 ft | 478 kts | 269° |
| 2026-05-06 11:42 | 49.00670 | -7.30590 | 38047 ft | 478 kts | 269° |
| 2026-05-06 11:42 | 49.00597 | -7.40652 | 38043 ft | 478 kts | 269° |
| 2026-05-06 11:43 | 49.00516 | -7.50785 | 38045 ft | 478 kts | 269° |
| 2026-05-06 11:43 | 49.00429 | -7.60916 | 38046 ft | 478 kts | 269° |
| 2026-05-06 11:44 | 49.00280 | -7.76129 | 38041 ft | 478 kts | 269° |
| 2026-05-06 11:44 | 49.00170 | -7.86217 | 38045 ft | 479 kts | 269° |
| 2026-05-06 11:45 | 49.00051 | -7.96346 | 38046 ft | 479 kts | 269° |
| 2026-05-06 11:45 | 48.99379 | -8.06458 | 38048 ft | 479 kts | 262° |
| 2026-05-06 11:46 | 48.98417 | -8.16479 | 38046 ft | 479 kts | 262° |
| 2026-05-06 11:46 | 48.97406 | -8.26488 | 38048 ft | 479 kts | 262° |
| 2026-05-06 11:47 | 48.96391 | -8.36500 | 38051 ft | 478 kts | 262° |
| 2026-05-06 11:47 | 48.95382 | -8.46448 | 38049 ft | 478 kts | 262° |
| 2026-05-06 11:48 | 48.94361 | -8.56466 | 38051 ft | 478 kts | 261° |
| 2026-05-06 11:48 | 48.93332 | -8.66463 | 38052 ft | 479 kts | 261° |
| 2026-05-06 11:49 | 48.92294 | -8.76461 | 38051 ft | 479 kts | 261° |
| 2026-05-06 11:49 | 48.91246 | -8.86464 | 38056 ft | 479 kts | 261° |
| 2026-05-06 11:50 | 48.90190 | -8.96458 | 38054 ft | 479 kts | 261° |
| 2026-05-06 11:50 | 48.89126 | -9.06441 | 38052 ft | 478 kts | 261° |
| 2026-05-06 11:51 | 48.88053 | -9.16421 | 38051 ft | 478 kts | 261° |
| 2026-05-06 11:51 | 48.86979 | -9.26334 | 38056 ft | 478 kts | 261° |
| 2026-05-06 11:52 | 48.85889 | -9.36306 | 38056 ft | 478 kts | 261° |
| 2026-05-06 11:52 | 48.84798 | -9.46205 | 38055 ft | 478 kts | 261° |
| 2026-05-06 11:53 | 48.83692 | -9.56167 | 38067 ft | 478 kts | 261° |
| 2026-05-06 11:53 | 48.82574 | -9.66139 | 38058 ft | 478 kts | 261° |
| 2026-05-06 11:54 | 48.81457 | -9.76031 | 38055 ft | 478 kts | 261° |
| 2026-05-06 11:54 | 48.80326 | -9.85972 | 38070 ft | 478 kts | 261° |
| 2026-05-06 11:55 | 48.79184 | -9.95918 | 38063 ft | 478 kts | 261° |
| 2026-05-06 11:55 | 48.78227 | -10.04205 | 38077 ft | 479 kts | 260° |
| 2026-05-06 11:56 | 48.77066 | -10.14168 | 38066 ft | 479 kts | 260° |
| 2026-05-06 11:56 | 48.75897 | -10.24136 | 38069 ft | 479 kts | 260° |
| 2026-05-06 11:57 | 48.74728 | -10.34016 | 38072 ft | 479 kts | 260° |
| 2026-05-06 11:57 | 48.73539 | -10.43997 | 38069 ft | 480 kts | 260° |
| 2026-05-06 11:58 | 48.72374 | -10.53948 | 38072 ft | 480 kts | 262° |
| 2026-05-06 11:58 | 48.71510 | -10.63909 | 38075 ft | 479 kts | 264° |
| 2026-05-06 11:59 | 48.70716 | -10.73953 | 38071 ft | 479 kts | 263° |
| 2026-05-06 11:59 | 48.69869 | -10.83984 | 38079 ft | 480 kts | 263° |
| 2026-05-06 12:00 | 48.68987 | -10.93941 | 38078 ft | 480 kts | 263° |
| 2026-05-06 12:00 | 48.68083 | -11.03955 | 38075 ft | 480 kts | 263° |
| 2026-05-06 12:01 | 48.67170 | -11.13964 | 38087 ft | 480 kts | 263° |
| 2026-05-06 12:01 | 48.66250 | -11.23987 | 38080 ft | 480 kts | 262° |
| 2026-05-06 12:02 | 48.65322 | -11.33998 | 38089 ft | 480 kts | 262° |
| 2026-05-06 12:02 | 48.64389 | -11.43965 | 38083 ft | 481 kts | 262° |
| 2026-05-06 12:03 | 48.63443 | -11.53981 | 38082 ft | 481 kts | 262° |
| 2026-05-06 12:03 | 48.62486 | -11.64009 | 38082 ft | 482 kts | 262° |
| 2026-05-06 12:04 | 48.61520 | -11.74037 | 38088 ft | 482 kts | 262° |
| 2026-05-06 12:04 | 48.60546 | -11.84058 | 38091 ft | 482 kts | 262° |
| 2026-05-06 12:05 | 48.59568 | -11.94029 | 38095 ft | 482 kts | 262° |
| 2026-05-06 12:05 | 48.58574 | -12.04066 | 38093 ft | 482 kts | 262° |
| 2026-05-06 12:06 | 48.57573 | -12.14075 | 38084 ft | 483 kts | 262° |
| 2026-05-06 12:06 | 48.56562 | -12.24105 | 38092 ft | 483 kts | 262° |
| 2026-05-06 12:07 | 48.55546 | -12.34090 | 38097 ft | 483 kts | 262° |
| 2026-05-06 12:07 | 48.54517 | -12.44115 | 38090 ft | 483 kts | 262° |
| 2026-05-06 12:08 | 48.53479 | -12.54145 | 38096 ft | 483 kts | 262° |
| 2026-05-06 12:08 | 48.52438 | -12.64106 | 38104 ft | 483 kts | 262° |
| 2026-05-06 12:09 | 48.51384 | -12.74110 | 38107 ft | 483 kts | 262° |
| 2026-05-06 12:09 | 48.50318 | -12.84139 | 38091 ft | 483 kts | 262° |
| 2026-05-06 12:10 | 48.49252 | -12.94087 | 38097 ft | 483 kts | 262° |
| 2026-05-06 12:10 | 48.48168 | -13.04107 | 38098 ft | 483 kts | 262° |
| 2026-05-06 12:11 | 48.47076 | -13.14125 | 38090 ft | 483 kts | 262° |
| 2026-05-06 12:11 | 48.45983 | -13.24067 | 38088 ft | 484 kts | 262° |
| 2026-05-06 12:12 | 48.44875 | -13.34065 | 38106 ft | 483 kts | 262° |
| 2026-05-06 12:12 | 48.43756 | -13.44069 | 38093 ft | 483 kts | 262° |
| 2026-05-06 12:13 | 48.42631 | -13.54062 | 38109 ft | 483 kts | 262° |
| 2026-05-06 12:13 | 48.41504 | -13.63979 | 38107 ft | 484 kts | 262° |
| 2026-05-06 12:14 | 48.40361 | -13.73968 | 38109 ft | 484 kts | 262° |
| 2026-05-06 12:14 | 48.39208 | -13.83955 | 38109 ft | 484 kts | 261° |
| 2026-05-06 12:15 | 48.38053 | -13.93883 | 38107 ft | 484 kts | 261° |
| 2026-05-06 12:15 | 48.36884 | -14.03855 | 38110 ft | 484 kts | 261° |
| 2026-05-06 12:16 | 48.35702 | -14.13855 | 38106 ft | 484 kts | 261° |
| 2026-05-06 12:16 | 48.34522 | -14.23767 | 38111 ft | 484 kts | 261° |
| 2026-05-06 12:17 | 48.33324 | -14.33743 | 38113 ft | 484 kts | 261° |
| 2026-05-06 12:17 | 48.32128 | -14.43639 | 38121 ft | 484 kts | 261° |
| 2026-05-06 12:18 | 48.30914 | -14.53596 | 38118 ft | 484 kts | 261° |
| 2026-05-06 12:18 | 48.29694 | -14.63534 | 38119 ft | 484 kts | 261° |
| 2026-05-06 12:19 | 48.28472 | -14.73419 | 38122 ft | 483 kts | 261° |
| 2026-05-06 12:19 | 48.27234 | -14.83353 | 38121 ft | 483 kts | 261° |
| 2026-05-06 12:20 | 48.25993 | -14.93242 | 38122 ft | 483 kts | 261° |
| 2026-05-06 12:20 | 48.24739 | -15.03158 | 38124 ft | 483 kts | 261° |
| 2026-05-06 12:21 | 48.23477 | -15.13068 | 38125 ft | 483 kts | 261° |
| 2026-05-06 12:21 | 48.22206 | -15.22974 | 38127 ft | 483 kts | 261° |
| 2026-05-06 12:22 | 48.20935 | -15.32807 | 38130 ft | 483 kts | 261° |
| 2026-05-06 12:22 | 48.19648 | -15.42702 | 38127 ft | 483 kts | 261° |
| 2026-05-06 12:23 | 48.18360 | -15.52529 | 38126 ft | 482 kts | 261° |
| 2026-05-06 12:23 | 48.17056 | -15.62408 | 38128 ft | 482 kts | 261° |
| 2026-05-06 12:24 | 48.15745 | -15.72273 | 38129 ft | 482 kts | 261° |
| 2026-05-06 12:24 | 48.14434 | -15.82065 | 38129 ft | 482 kts | 261° |
| 2026-05-06 12:25 | 48.13106 | -15.91920 | 38135 ft | 482 kts | 261° |
| 2026-05-06 12:25 | 48.11771 | -16.01761 | 38138 ft | 481 kts | 261° |
| 2026-05-06 12:26 | 48.10438 | -16.11521 | 38139 ft | 481 kts | 261° |
| 2026-05-06 12:26 | 48.09087 | -16.21353 | 38141 ft | 481 kts | 261° |
| 2026-05-06 12:27 | 48.07728 | -16.31170 | 38136 ft | 481 kts | 261° |
| 2026-05-06 12:27 | 48.06372 | -16.40899 | 38141 ft | 481 kts | 261° |
| 2026-05-06 12:28 | 48.04998 | -16.50696 | 38142 ft | 480 kts | 261° |
| 2026-05-06 12:28 | 48.03618 | -16.60468 | 38145 ft | 480 kts | 261° |
| 2026-05-06 12:29 | 48.02230 | -16.70230 | 38143 ft | 480 kts | 261° |
| 2026-05-06 12:29 | 48.00846 | -16.79911 | 38145 ft | 479 kts | 261° |
| 2026-05-06 12:30 | 47.99443 | -16.89656 | 38148 ft | 479 kts | 261° |
| 2026-05-06 12:30 | 47.98030 | -16.99412 | 38143 ft | 479 kts | 261° |
| 2026-05-06 12:31 | 47.96620 | -17.09081 | 38151 ft | 479 kts | 261° |
| 2026-05-06 12:31 | 47.95195 | -17.18793 | 38145 ft | 479 kts | 261° |
| 2026-05-06 12:32 | 47.93760 | -17.28511 | 38149 ft | 479 kts | 261° |
| 2026-05-06 12:32 | 47.92317 | -17.38224 | 38148 ft | 479 kts | 261° |
| 2026-05-06 12:33 | 47.90866 | -17.47933 | 38155 ft | 479 kts | 260° |
| 2026-05-06 12:33 | 47.89414 | -17.57587 | 38154 ft | 479 kts | 260° |
| 2026-05-06 12:34 | 47.87946 | -17.67284 | 38153 ft | 479 kts | 260° |
| 2026-05-06 12:34 | 47.86473 | -17.76955 | 38154 ft | 478 kts | 260° |
| 2026-05-06 12:35 | 47.85004 | -17.86547 | 38155 ft | 478 kts | 260° |
| 2026-05-06 12:35 | 47.83517 | -17.96195 | 38153 ft | 477 kts | 260° |
| 2026-05-06 12:36 | 47.82025 | -18.05818 | 38162 ft | 476 kts | 260° |
| 2026-05-06 12:36 | 47.80528 | -18.15413 | 38163 ft | 475 kts | 260° |
| 2026-05-06 12:37 | 47.79037 | -18.24917 | 38161 ft | 475 kts | 260° |
| 2026-05-06 12:37 | 47.77530 | -18.34469 | 38154 ft | 474 kts | 259° |
| 2026-05-06 12:38 | 47.76019 | -18.43988 | 38159 ft | 473 kts | 259° |
| 2026-05-06 12:38 | 47.74501 | -18.53495 | 38156 ft | 472 kts | 259° |
| 2026-05-06 12:39 | 47.72981 | -18.62966 | 38152 ft | 471 kts | 259° |
| 2026-05-06 12:39 | 47.71452 | -18.72438 | 38159 ft | 471 kts | 259° |
| 2026-05-06 12:40 | 47.69918 | -18.81880 | 38162 ft | 471 kts | 259° |
| 2026-05-06 12:40 | 47.68375 | -18.91331 | 38161 ft | 470 kts | 259° |
| 2026-05-06 12:41 | 47.66827 | -19.00757 | 38162 ft | 470 kts | 259° |
| 2026-05-06 12:41 | 47.65283 | -19.10109 | 38160 ft | 470 kts | 259° |
| 2026-05-06 12:42 | 47.63720 | -19.19521 | 38156 ft | 470 kts | 259° |
| 2026-05-06 12:42 | 47.62147 | -19.28940 | 38155 ft | 470 kts | 259° |
| 2026-05-06 12:43 | 47.60579 | -19.38283 | 38157 ft | 469 kts | 259° |
| 2026-05-06 12:43 | 47.58994 | -19.47670 | 38159 ft | 469 kts | 258° |
| 2026-05-06 12:44 | 47.57403 | -19.57046 | 38159 ft | 469 kts | 258° |
| 2026-05-06 12:44 | 47.55805 | -19.66410 | 38158 ft | 469 kts | 258° |
| 2026-05-06 12:45 | 47.54471 | -19.74188 | 38160 ft | 468 kts | 258° |
| 2026-05-06 12:46 | 47.52054 | -19.88193 | 38157 ft | 468 kts | 258° |
| 2026-05-06 12:46 | 47.50435 | -19.97512 | 38155 ft | 467 kts | 258° |
| 2026-05-06 12:47 | 47.48753 | -20.06790 | 38158 ft | 467 kts | 257° |
| 2026-05-06 12:47 | 47.46902 | -20.15993 | 38162 ft | 467 kts | 256° |
| 2026-05-06 12:48 | 47.45033 | -20.25182 | 38163 ft | 466 kts | 256° |
| 2026-05-06 12:48 | 47.43190 | -20.34343 | 38158 ft | 465 kts | 257° |
| 2026-05-06 12:49 | 47.41354 | -20.43502 | 38160 ft | 465 kts | 257° |
| 2026-05-06 12:49 | 47.39515 | -20.52648 | 38158 ft | 465 kts | 257° |
| 2026-05-06 12:50 | 47.37675 | -20.61752 | 38169 ft | 465 kts | 257° |
| 2026-05-06 12:50 | 47.35819 | -20.70888 | 38175 ft | 465 kts | 256° |
| 2026-05-06 12:51 | 47.33953 | -20.80026 | 38153 ft | 465 kts | 256° |
| 2026-05-06 12:51 | 47.32081 | -20.89157 | 38171 ft | 465 kts | 256° |
| 2026-05-06 12:52 | 47.30202 | -20.98275 | 38167 ft | 464 kts | 256° |
| 2026-05-06 12:52 | 47.28331 | -21.07313 | 38164 ft | 464 kts | 256° |
| 2026-05-06 12:53 | 47.26444 | -21.16392 | 38162 ft | 463 kts | 256° |
| 2026-05-06 12:53 | 47.24550 | -21.25462 | 38164 ft | 463 kts | 256° |
| 2026-05-06 12:54 | 47.22649 | -21.34523 | 38164 ft | 463 kts | 256° |
| 2026-05-06 12:54 | 47.20744 | -21.43565 | 38164 ft | 462 kts | 256° |
| 2026-05-06 12:55 | 47.18832 | -21.52597 | 38164 ft | 462 kts | 256° |
| 2026-05-06 12:55 | 47.16927 | -21.61560 | 38162 ft | 462 kts | 256° |
| 2026-05-06 12:56 | 47.15007 | -21.70558 | 38162 ft | 462 kts | 256° |
| 2026-05-06 12:56 | 47.13077 | -21.79564 | 38165 ft | 462 kts | 256° |
| 2026-05-06 12:57 | 47.11136 | -21.88575 | 38164 ft | 462 kts | 256° |
| 2026-05-06 12:57 | 47.09203 | -21.97512 | 38165 ft | 462 kts | 256° |
| 2026-05-06 12:58 | 47.07249 | -22.06504 | 38163 ft | 462 kts | 256° |
| 2026-05-06 12:58 | 47.05288 | -22.15490 | 38166 ft | 463 kts | 256° |
| 2026-05-06 12:59 | 47.03328 | -22.24436 | 38163 ft | 464 kts | 255° |
| 2026-05-06 12:59 | 47.01344 | -22.33448 | 38164 ft | 464 kts | 255° |
| 2026-05-06 13:00 | 46.99349 | -22.42478 | 38165 ft | 465 kts | 255° |
| 2026-05-06 13:00 | 46.97346 | -22.51501 | 38165 ft | 466 kts | 255° |
| 2026-05-06 13:01 | 46.95347 | -22.60469 | 38164 ft | 465 kts | 255° |
| 2026-05-06 13:01 | 46.93331 | -22.69469 | 38162 ft | 465 kts | 254° |
| 2026-05-06 13:02 | 46.91308 | -22.78468 | 38165 ft | 465 kts | 254° |
| 2026-05-06 13:02 | 46.89276 | -22.87464 | 38170 ft | 465 kts | 254° |
| 2026-05-06 13:03 | 46.87253 | -22.96386 | 38167 ft | 465 kts | 254° |
| 2026-05-06 13:03 | 46.85212 | -23.05346 | 38164 ft | 464 kts | 254° |
| 2026-05-06 13:04 | 46.83160 | -23.14323 | 38164 ft | 464 kts | 254° |
| 2026-05-06 13:04 | 46.81106 | -23.23265 | 38164 ft | 464 kts | 254° |
| 2026-05-06 13:05 | 46.79058 | -23.32152 | 38163 ft | 464 kts | 253° |
| 2026-05-06 13:05 | 46.76985 | -23.41107 | 38161 ft | 465 kts | 253° |
| 2026-05-06 13:06 | 46.74916 | -23.50011 | 38161 ft | 466 kts | 253° |
| 2026-05-06 13:06 | 46.72827 | -23.58959 | 38160 ft | 466 kts | 253° |
| 2026-05-06 13:07 | 46.70722 | -23.67938 | 38162 ft | 467 kts | 253° |
| 2026-05-06 13:07 | 46.68611 | -23.76908 | 38160 ft | 468 kts | 252° |
| 2026-05-06 13:08 | 46.66504 | -23.85826 | 38156 ft | 468 kts | 252° |
| 2026-05-06 13:08 | 46.64376 | -23.94794 | 38154 ft | 469 kts | 252° |
| 2026-05-06 13:09 | 46.62247 | -24.03726 | 38156 ft | 469 kts | 252° |
| 2026-05-06 13:09 | 46.60099 | -24.12702 | 38153 ft | 469 kts | 252° |
| 2026-05-06 13:10 | 46.57945 | -24.21669 | 38151 ft | 469 kts | 252° |
| 2026-05-06 13:10 | 46.55784 | -24.30627 | 38150 ft | 469 kts | 252° |
| 2026-05-06 13:11 | 46.53612 | -24.39597 | 38149 ft | 469 kts | 252° |
| 2026-05-06 13:11 | 46.51452 | -24.48484 | 38150 ft | 469 kts | 252° |
| 2026-05-06 13:12 | 46.49273 | -24.57411 | 38145 ft | 469 kts | 252° |
| 2026-05-06 13:12 | 46.47084 | -24.66348 | 38143 ft | 468 kts | 252° |
| 2026-05-06 13:13 | 46.44900 | -24.75224 | 38140 ft | 467 kts | 252° |
| 2026-05-06 13:13 | 46.42721 | -24.84044 | 38139 ft | 467 kts | 252° |
| 2026-05-06 13:14 | 46.40526 | -24.92896 | 38136 ft | 466 kts | 252° |
| 2026-05-06 13:14 | 46.38323 | -25.01746 | 38135 ft | 465 kts | 252° |
| 2026-05-06 13:15 | 46.36135 | -25.10504 | 38134 ft | 464 kts | 251° |
| 2026-05-06 13:15 | 46.33930 | -25.19292 | 38136 ft | 464 kts | 251° |
| 2026-05-06 13:16 | 46.31724 | -25.28053 | 38135 ft | 463 kts | 251° |
| 2026-05-06 13:16 | 46.29512 | -25.36800 | 38135 ft | 462 kts | 251° |
| 2026-05-06 13:17 | 46.27308 | -25.45486 | 38132 ft | 461 kts | 251° |
| 2026-05-06 13:17 | 46.25092 | -25.54186 | 38132 ft | 460 kts | 251° |
| 2026-05-06 13:18 | 46.22876 | -25.62856 | 38131 ft | 459 kts | 251° |
| 2026-05-06 13:18 | 46.20651 | -25.71522 | 38130 ft | 459 kts | 251° |
| 2026-05-06 13:19 | 46.18441 | -25.80101 | 38128 ft | 458 kts | 251° |
| 2026-05-06 13:19 | 46.16214 | -25.88713 | 38128 ft | 457 kts | 251° |
| 2026-05-06 13:20 | 46.13999 | -25.97246 | 38130 ft | 456 kts | 251° |
| 2026-05-06 13:20 | 46.11773 | -26.05795 | 38129 ft | 455 kts | 251° |
| 2026-05-06 13:21 | 46.09541 | -26.14332 | 38126 ft | 454 kts | 251° |
| 2026-05-06 13:21 | 46.07306 | -26.22848 | 38125 ft | 454 kts | 251° |
| 2026-05-06 13:22 | 46.05068 | -26.31349 | 38123 ft | 453 kts | 251° |
| 2026-05-06 13:22 | 46.02837 | -26.39790 | 38120 ft | 453 kts | 251° |
| 2026-05-06 13:23 | 46.00584 | -26.48284 | 38118 ft | 453 kts | 251° |
| 2026-05-06 13:23 | 45.98346 | -26.56689 | 38118 ft | 453 kts | 251° |
| 2026-05-06 13:24 | 45.96089 | -26.65140 | 38118 ft | 453 kts | 250° |
| 2026-05-06 13:24 | 45.93825 | -26.73585 | 38115 ft | 452 kts | 250° |
| 2026-05-06 13:25 | 45.91555 | -26.82020 | 38113 ft | 452 kts | 250° |
| 2026-05-06 13:25 | 45.89280 | -26.90446 | 38110 ft | 452 kts | 250° |
| 2026-05-06 13:26 | 45.86999 | -26.98864 | 38110 ft | 452 kts | 250° |
| 2026-05-06 13:26 | 45.84728 | -27.07211 | 38110 ft | 452 kts | 250° |
| 2026-05-06 13:27 | 45.82437 | -27.15610 | 38107 ft | 451 kts | 250° |
| 2026-05-06 13:27 | 45.80145 | -27.23977 | 38105 ft | 451 kts | 250° |
| 2026-05-06 13:28 | 45.77855 | -27.32309 | 38101 ft | 451 kts | 250° |
| 2026-05-06 13:28 | 45.75552 | -27.40663 | 38097 ft | 450 kts | 250° |
| 2026-05-06 13:29 | 45.73242 | -27.49012 | 38101 ft | 450 kts | 250° |
| 2026-05-06 13:29 | 45.70927 | -27.57348 | 38093 ft | 450 kts | 250° |
| 2026-05-06 13:30 | 45.68620 | -27.65631 | 38095 ft | 450 kts | 250° |
| 2026-05-06 13:30 | 45.66295 | -27.73945 | 38089 ft | 450 kts | 250° |
| 2026-05-06 13:31 | 45.64359 | -27.80848 | 38086 ft | 450 kts | 250° |
| 2026-05-06 13:31 | 45.61639 | -27.90512 | 38082 ft | 450 kts | 250° |
| 2026-05-06 13:32 | 45.59691 | -27.97413 | 38084 ft | 450 kts | 250° |
| 2026-05-06 13:32 | 45.57345 | -28.05695 | 38083 ft | 450 kts | 249° |
| 2026-05-06 13:33 | 45.54990 | -28.13978 | 38072 ft | 450 kts | 249° |
| 2026-05-06 13:33 | 45.52626 | -28.22266 | 38075 ft | 450 kts | 249° |
| 2026-05-06 13:34 | 45.50261 | -28.30534 | 38074 ft | 450 kts | 249° |
| 2026-05-06 13:34 | 45.47891 | -28.38792 | 38070 ft | 450 kts | 249° |
| 2026-05-06 13:35 | 45.45528 | -28.46993 | 38071 ft | 450 kts | 249° |
| 2026-05-06 13:35 | 45.43144 | -28.55243 | 38070 ft | 450 kts | 249° |
| 2026-05-06 13:36 | 45.40755 | -28.63481 | 38067 ft | 450 kts | 249° |
| 2026-05-06 13:36 | 45.38378 | -28.71651 | 38069 ft | 450 kts | 249° |
| 2026-05-06 13:37 | 45.35975 | -28.79882 | 38072 ft | 450 kts | 249° |
| 2026-05-06 13:37 | 45.33572 | -28.88088 | 38068 ft | 450 kts | 249° |
| 2026-05-06 13:38 | 45.31162 | -28.96292 | 38071 ft | 450 kts | 249° |
| 2026-05-06 13:38 | 45.28742 | -29.04500 | 38068 ft | 450 kts | 249° |
| 2026-05-06 13:39 | 45.26312 | -29.12714 | 38071 ft | 450 kts | 249° |
| 2026-05-06 13:39 | 45.23895 | -29.20857 | 38077 ft | 451 kts | 249° |
| 2026-05-06 13:40 | 45.21456 | -29.29050 | 38078 ft | 451 kts | 249° |
| 2026-05-06 13:40 | 45.19003 | -29.37262 | 38080 ft | 451 kts | 248° |
| 2026-05-06 13:41 | 45.16566 | -29.45397 | 38080 ft | 451 kts | 248° |
| 2026-05-06 13:41 | 45.14105 | -29.53582 | 38087 ft | 451 kts | 248° |
| 2026-05-06 13:42 | 45.11641 | -29.61754 | 38092 ft | 451 kts | 248° |
| 2026-05-06 13:42 | 45.09170 | -29.69920 | 38094 ft | 451 kts | 248° |
| 2026-05-06 13:43 | 45.06707 | -29.78032 | 38097 ft | 451 kts | 248° |
| 2026-05-06 13:43 | 45.04222 | -29.86195 | 38098 ft | 451 kts | 248° |
| 2026-05-06 13:44 | 45.01732 | -29.94346 | 38100 ft | 451 kts | 248° |
| 2026-05-06 13:44 | 44.98987 | -30.02331 | 38108 ft | 453 kts | 243° |
| 2026-05-06 13:45 | 44.95822 | -30.10021 | 38111 ft | 453 kts | 242° |
| 2026-05-06 13:45 | 44.90969 | -30.21468 | 38115 ft | 453 kts | 241° |
| 2026-05-06 13:46 | 44.87733 | -30.29087 | 38120 ft | 453 kts | 241° |
| 2026-05-06 13:46 | 44.84494 | -30.36713 | 38124 ft | 453 kts | 241° |
| 2026-05-06 13:47 | 44.81278 | -30.44272 | 38127 ft | 453 kts | 241° |
| 2026-05-06 13:47 | 44.78035 | -30.51873 | 38127 ft | 453 kts | 241° |
| 2026-05-06 13:48 | 44.74790 | -30.59459 | 38131 ft | 452 kts | 241° |
| 2026-05-06 13:48 | 44.71533 | -30.67049 | 38134 ft | 452 kts | 241° |
| 2026-05-06 13:49 | 44.68275 | -30.74625 | 38136 ft | 452 kts | 241° |
| 2026-05-06 13:49 | 44.65014 | -30.82184 | 38139 ft | 452 kts | 241° |
| 2026-05-06 13:50 | 44.61765 | -30.89698 | 38144 ft | 452 kts | 241° |
| 2026-05-06 13:50 | 44.58489 | -30.97255 | 38147 ft | 452 kts | 241° |
| 2026-05-06 13:51 | 44.55209 | -31.04800 | 38152 ft | 452 kts | 241° |
| 2026-05-06 13:51 | 44.51952 | -31.12272 | 38152 ft | 452 kts | 241° |
| 2026-05-06 13:52 | 44.48671 | -31.19780 | 38156 ft | 452 kts | 241° |
| 2026-05-06 13:52 | 44.45380 | -31.27290 | 38158 ft | 452 kts | 241° |
| 2026-05-06 13:53 | 44.42087 | -31.34786 | 38161 ft | 452 kts | 241° |
| 2026-05-06 13:53 | 44.38791 | -31.42267 | 38160 ft | 452 kts | 241° |
| 2026-05-06 13:54 | 44.35489 | -31.49744 | 38157 ft | 452 kts | 241° |
| 2026-05-06 13:54 | 44.32179 | -31.57218 | 38175 ft | 452 kts | 240° |
| 2026-05-06 13:55 | 44.28882 | -31.64645 | 38179 ft | 452 kts | 240° |
| 2026-05-06 13:55 | 44.25560 | -31.72109 | 38183 ft | 452 kts | 240° |
| 2026-05-06 13:56 | 44.22251 | -31.79523 | 38184 ft | 452 kts | 240° |
| 2026-05-06 13:56 | 44.18919 | -31.86970 | 38182 ft | 452 kts | 240° |
| 2026-05-06 13:57 | 44.15598 | -31.94375 | 38186 ft | 452 kts | 240° |
| 2026-05-06 13:57 | 44.12258 | -32.01801 | 38184 ft | 452 kts | 240° |
| 2026-05-06 13:58 | 44.08906 | -32.09236 | 38189 ft | 452 kts | 240° |
| 2026-05-06 13:58 | 44.05572 | -32.16612 | 38186 ft | 453 kts | 240° |
| 2026-05-06 13:59 | 44.02206 | -32.24040 | 38194 ft | 453 kts | 240° |
| 2026-05-06 13:59 | 43.98838 | -32.31454 | 38202 ft | 453 kts | 240° |
| 2026-05-06 14:00 | 43.95481 | -32.38823 | 38196 ft | 454 kts | 240° |
| 2026-05-06 14:00 | 43.92103 | -32.46220 | 38207 ft | 454 kts | 240° |
| 2026-05-06 14:01 | 43.88710 | -32.53631 | 38206 ft | 454 kts | 240° |
| 2026-05-06 14:01 | 43.85317 | -32.61023 | 38206 ft | 454 kts | 240° |
| 2026-05-06 14:02 | 43.81916 | -32.68413 | 38214 ft | 455 kts | 240° |
| 2026-05-06 14:02 | 43.78530 | -32.75754 | 38216 ft | 455 kts | 240° |
| 2026-05-06 14:03 | 43.75111 | -32.83146 | 38216 ft | 455 kts | 240° |
| 2026-05-06 14:03 | 43.71701 | -32.90502 | 38223 ft | 456 kts | 240° |
| 2026-05-06 14:04 | 43.68260 | -32.97904 | 38221 ft | 456 kts | 240° |
| 2026-05-06 14:04 | 43.64840 | -33.05243 | 38223 ft | 457 kts | 240° |
| 2026-05-06 14:05 | 43.61389 | -33.12629 | 38226 ft | 457 kts | 240° |
| 2026-05-06 14:05 | 43.57930 | -33.20014 | 38228 ft | 458 kts | 240° |
| 2026-05-06 14:06 | 43.54461 | -33.27402 | 38231 ft | 459 kts | 240° |
| 2026-05-06 14:06 | 43.50981 | -33.34794 | 38234 ft | 459 kts | 240° |
| 2026-05-06 14:07 | 43.47520 | -33.42129 | 38237 ft | 459 kts | 239° |
| 2026-05-06 14:07 | 43.44026 | -33.49512 | 38235 ft | 460 kts | 240° |
| 2026-05-06 14:08 | 43.40525 | -33.56893 | 38239 ft | 460 kts | 240° |
| 2026-05-06 14:08 | 43.37037 | -33.64229 | 38245 ft | 460 kts | 240° |
| 2026-05-06 14:09 | 43.33523 | -33.71601 | 38243 ft | 461 kts | 240° |
| 2026-05-06 14:09 | 43.29996 | -33.78981 | 38246 ft | 461 kts | 240° |
| 2026-05-06 14:10 | 43.26489 | -33.86301 | 38241 ft | 462 kts | 240° |
| 2026-05-06 14:10 | 43.22951 | -33.93669 | 38264 ft | 462 kts | 240° |
| 2026-05-06 14:11 | 43.19409 | -34.01025 | 38262 ft | 462 kts | 240° |
| 2026-05-06 14:11 | 43.15856 | -34.08388 | 38263 ft | 463 kts | 240° |
| 2026-05-06 14:12 | 43.12321 | -34.15691 | 38260 ft | 463 kts | 240° |
| 2026-05-06 14:12 | 43.08751 | -34.23052 | 38260 ft | 463 kts | 240° |
| 2026-05-06 14:13 | 43.05183 | -34.30390 | 38266 ft | 463 kts | 240° |
| 2026-05-06 14:13 | 43.01599 | -34.37743 | 38266 ft | 464 kts | 240° |
| 2026-05-06 14:14 | 42.98037 | -34.45032 | 38269 ft | 464 kts | 240° |
| 2026-05-06 14:14 | 42.94447 | -34.52358 | 38270 ft | 464 kts | 240° |
| 2026-05-06 14:15 | 42.90855 | -34.59672 | 38272 ft | 464 kts | 240° |
| 2026-05-06 14:15 | 42.87254 | -34.66987 | 38274 ft | 464 kts | 240° |
| 2026-05-06 14:16 | 42.83671 | -34.74248 | 38276 ft | 464 kts | 240° |
| 2026-05-06 14:16 | 42.80059 | -34.81549 | 38281 ft | 464 kts | 240° |
| 2026-05-06 14:17 | 42.77045 | -34.87627 | 38284 ft | 464 kts | 240° |
| 2026-05-06 14:17 | 42.72836 | -34.96096 | 38284 ft | 464 kts | 240° |
| 2026-05-06 14:18 | 42.69799 | -35.02190 | 38282 ft | 464 kts | 240° |
| 2026-05-06 14:18 | 42.66170 | -35.09457 | 38290 ft | 464 kts | 240° |
| 2026-05-06 14:19 | 42.62559 | -35.16671 | 38291 ft | 464 kts | 240° |
| 2026-05-06 14:19 | 42.58916 | -35.23930 | 38295 ft | 464 kts | 240° |
| 2026-05-06 14:20 | 42.55275 | -35.31169 | 38295 ft | 464 kts | 240° |
| 2026-05-06 14:20 | 42.51650 | -35.38357 | 38295 ft | 464 kts | 240° |
| 2026-05-06 14:21 | 42.48000 | -35.45579 | 38301 ft | 464 kts | 240° |
| 2026-05-06 14:21 | 42.44344 | -35.52795 | 38306 ft | 463 kts | 240° |
| 2026-05-06 14:22 | 42.40710 | -35.59949 | 38307 ft | 463 kts | 240° |
| 2026-05-06 14:22 | 42.37051 | -35.67137 | 38309 ft | 463 kts | 240° |
| 2026-05-06 14:23 | 42.33388 | -35.74315 | 38307 ft | 463 kts | 240° |
| 2026-05-06 14:23 | 42.29725 | -35.81475 | 38310 ft | 463 kts | 240° |
| 2026-05-06 14:24 | 42.26078 | -35.88587 | 38315 ft | 463 kts | 240° |
| 2026-05-06 14:24 | 42.22401 | -35.95742 | 38310 ft | 462 kts | 240° |
| 2026-05-06 14:25 | 42.18727 | -36.02874 | 38318 ft | 462 kts | 240° |
| 2026-05-06 14:25 | 42.15068 | -36.09958 | 38325 ft | 462 kts | 240° |
| 2026-05-06 14:26 | 42.11383 | -36.17077 | 38320 ft | 462 kts | 240° |
| 2026-05-06 14:26 | 42.07723 | -36.24131 | 38319 ft | 462 kts | 240° |
| 2026-05-06 14:27 | 42.04031 | -36.31230 | 38330 ft | 462 kts | 240° |
| 2026-05-06 14:27 | 42.00340 | -36.38310 | 38332 ft | 462 kts | 240° |
| 2026-05-06 14:28 | 41.96647 | -36.45379 | 38332 ft | 462 kts | 240° |
| 2026-05-06 14:28 | 41.92970 | -36.52400 | 38333 ft | 461 kts | 240° |
| 2026-05-06 14:29 | 41.89269 | -36.59451 | 38336 ft | 461 kts | 240° |
| 2026-05-06 14:29 | 41.85566 | -36.66489 | 38339 ft | 461 kts | 240° |
| 2026-05-06 14:30 | 41.81884 | -36.73472 | 38338 ft | 461 kts | 240° |
| 2026-05-06 14:30 | 41.78177 | -36.80484 | 38342 ft | 461 kts | 240° |
| 2026-05-06 14:31 | 41.74461 | -36.87497 | 38346 ft | 460 kts | 240° |
| 2026-05-06 14:31 | 41.70769 | -36.94448 | 38346 ft | 460 kts | 240° |
| 2026-05-06 14:32 | 41.67046 | -37.01443 | 38349 ft | 460 kts | 240° |
| 2026-05-06 14:32 | 41.63323 | -37.08421 | 38350 ft | 460 kts | 240° |
| 2026-05-06 14:33 | 41.59599 | -37.15387 | 38351 ft | 460 kts | 240° |
| 2026-05-06 14:33 | 41.55900 | -37.22289 | 38353 ft | 460 kts | 240° |
| 2026-05-06 14:34 | 41.52171 | -37.29232 | 38355 ft | 460 kts | 240° |
| 2026-05-06 14:34 | 41.48443 | -37.36157 | 38365 ft | 460 kts | 240° |
| 2026-05-06 14:35 | 41.44710 | -37.43076 | 38361 ft | 459 kts | 240° |
| 2026-05-06 14:35 | 41.40969 | -37.49992 | 38360 ft | 459 kts | 240° |
| 2026-05-06 14:36 | 41.37259 | -37.56837 | 38357 ft | 458 kts | 241° |
| 2026-05-06 14:36 | 41.33528 | -37.63706 | 38363 ft | 457 kts | 241° |
| 2026-05-06 14:37 | 41.29798 | -37.70558 | 38361 ft | 456 kts | 241° |
| 2026-05-06 14:37 | 41.26074 | -37.77382 | 38368 ft | 455 kts | 241° |
| 2026-05-06 14:38 | 41.22350 | -37.84192 | 38369 ft | 455 kts | 241° |
| 2026-05-06 14:38 | 41.18633 | -37.90976 | 38373 ft | 454 kts | 241° |
| 2026-05-06 14:39 | 41.14911 | -37.97753 | 38374 ft | 454 kts | 241° |
| 2026-05-06 14:39 | 41.11216 | -38.04465 | 38373 ft | 452 kts | 242° |
| 2026-05-06 14:40 | 41.07504 | -38.11192 | 38373 ft | 451 kts | 242° |
| 2026-05-06 14:40 | 41.03798 | -38.17893 | 38375 ft | 449 kts | 242° |
| 2026-05-06 14:41 | 41.00107 | -38.24555 | 38374 ft | 447 kts | 242° |
| 2026-05-06 14:41 | 40.96424 | -38.31188 | 38387 ft | 446 kts | 242° |
| 2026-05-06 14:42 | 40.92750 | -38.37794 | 38385 ft | 445 kts | 242° |
| 2026-05-06 14:42 | 40.89082 | -38.44372 | 38389 ft | 444 kts | 242° |
| 2026-05-06 14:43 | 40.85437 | -38.50894 | 38386 ft | 443 kts | 242° |
| 2026-05-06 14:43 | 40.81772 | -38.57439 | 38389 ft | 442 kts | 242° |
| 2026-05-06 14:44 | 40.78113 | -38.63958 | 38390 ft | 441 kts | 242° |
| 2026-05-06 14:45 | 40.72635 | -38.73695 | 38389 ft | 439 kts | 243° |
| 2026-05-06 14:45 | 40.68998 | -38.80141 | 38395 ft | 438 kts | 243° |
| 2026-05-06 14:46 | 40.65354 | -38.86587 | 38398 ft | 437 kts | 243° |
| 2026-05-06 14:46 | 40.61748 | -38.92953 | 38396 ft | 435 kts | 243° |
| 2026-05-06 14:47 | 40.58119 | -38.99346 | 38398 ft | 434 kts | 243° |
| 2026-05-06 14:47 | 40.54507 | -39.05697 | 38399 ft | 433 kts | 243° |
| 2026-05-06 14:48 | 40.50911 | -39.12007 | 38405 ft | 432 kts | 243° |
| 2026-05-06 14:48 | 40.47305 | -39.18321 | 38403 ft | 431 kts | 243° |
| 2026-05-06 14:49 | 40.43704 | -39.24614 | 38397 ft | 431 kts | 244° |
| 2026-05-06 14:49 | 40.40105 | -39.30891 | 38406 ft | 430 kts | 244° |
| 2026-05-06 14:50 | 40.36507 | -39.37153 | 38400 ft | 429 kts | 244° |
| 2026-05-06 14:50 | 40.32915 | -39.43392 | 38416 ft | 428 kts | 244° |
| 2026-05-06 14:51 | 40.29331 | -39.49604 | 38409 ft | 427 kts | 244° |
| 2026-05-06 14:51 | 40.25746 | -39.55808 | 38412 ft | 427 kts | 244° |
| 2026-05-06 14:52 | 40.22164 | -39.61993 | 38411 ft | 426 kts | 244° |
| 2026-05-06 14:52 | 40.18583 | -39.68163 | 38417 ft | 426 kts | 244° |
| 2026-05-06 14:53 | 40.15023 | -39.74285 | 38416 ft | 425 kts | 244° |
| 2026-05-06 14:53 | 40.11445 | -39.80429 | 38418 ft | 425 kts | 243° |
| 2026-05-06 14:54 | 40.07855 | -39.86579 | 38413 ft | 424 kts | 243° |
| 2026-05-06 14:54 | 40.04270 | -39.92708 | 38417 ft | 424 kts | 243° |
| 2026-05-06 14:55 | 40.00670 | -39.98810 | 38419 ft | 426 kts | 242° |
| 2026-05-06 14:55 | 39.96592 | -40.04554 | 38421 ft | 433 kts | 237° |
| 2026-05-06 14:56 | 39.92388 | -40.10128 | 38422 ft | 434 kts | 237° |
| 2026-05-06 14:56 | 39.88128 | -40.15718 | 38423 ft | 433 kts | 237° |
| 2026-05-06 14:57 | 39.83907 | -40.21263 | 38422 ft | 432 kts | 237° |